Time;durP1;ratioP1;P1;durP2;ratioP2;P2;SDS_P1;SDS_P2;PMS_P1;PMS_P2;Temp;Humidity;BMP_temperature;BMP_pressure;BME280_temperature;BME280_humidity;BME280_pressure;Samples;Min_cycle;Max_cycle;Signal;HPM_P1;HPM_P2
2022/02/23 00:00:45;;;;;;;27.75;21.40;;;;;;;1.82;100.00;98932.72;2074098;28;20203;-67
2022/02/23 00:01:48;;;;;;;37.45;21.20;;;;;;;1.82;100.00;98930.09;2074385;28;20315;-67
2022/02/23 00:02:58;;;;;;;29.52;21.25;;;;;;;1.82;100.00;98922.22;2074787;28;20204;-68
2022/02/23 00:04:01;;;;;;;33.28;19.98;;;;;;;1.84;100.00;98926.22;2067759;28;20209;-67
2022/02/23 00:05:07;;;;;;;30.38;21.35;;;;;;;1.84;100.00;98928.84;2066559;28;20297;-67
2022/02/23 00:06:10;;;;;;;32.47;21.50;;;;;;;1.82;100.00;98917.75;2073856;28;20196;-67
2022/02/23 00:07:13;;;;;;;35.47;21.73;;;;;;;1.84;100.00;98917.53;2074292;28;20181;-67
2022/02/23 00:08:14;;;;;;;36.15;21.02;;;;;;;1.84;100.00;98920.94;2074499;28;20706;-66
2022/02/23 00:09:20;;;;;;;32.30;20.80;;;;;;;1.84;100.00;98914.91;2074425;28;20586;-68
2022/02/23 00:10:26;;;;;;;28.17;20.85;;;;;;;1.83;100.00;98913.31;2074232;28;20493;-67
2022/02/23 00:11:36;;;;;;;37.92;20.88;;;;;;;1.83;100.00;98915.94;2074456;28;20689;-67
2022/02/23 00:12:38;;;;;;;29.67;20.02;;;;;;;1.80;100.00;98914.56;2074213;28;20691;-67
2022/02/23 00:13:40;;;;;;;29.95;20.23;;;;;;;1.81;100.00;98918.00;2074314;28;20220;-67
2022/02/23 00:14:41;;;;;;;28.77;20.65;;;;;;;1.83;100.00;98908.84;2066510;28;20209;-67
2022/02/23 00:15:43;;;;;;;29.60;19.83;;;;;;;1.82;100.00;98914.31;2074204;28;20220;-67
2022/02/23 00:16:46;;;;;;;31.05;21.38;;;;;;;1.80;100.00;98906.69;2074810;28;20249;-66
2022/02/23 00:17:51;;;;;;;32.13;20.15;;;;;;;1.79;100.00;98899.81;2074741;28;20531;-67
2022/02/23 00:18:58;;;;;;;26.33;19.92;;;;;;;1.79;100.00;98899.81;2074700;28;20203;-67
2022/02/23 00:20:01;;;;;;;26.27;19.52;;;;;;;1.80;100.00;98900.63;2073871;28;20200;-67
2022/02/23 00:21:02;;;;;;;28.30;19.55;;;;;;;1.80;100.00;98901.41;2065778;28;20756;-67
2022/02/23 00:22:08;;;;;;;30.83;20.35;;;;;;;1.82;100.00;98896.69;2074148;28;20184;-66
2022/02/23 00:23:14;;;;;;;41.47;21.20;;;;;;;1.83;100.00;98893.06;2074469;28;20201;-68
2022/02/23 00:24:21;;;;;;;37.90;20.58;;;;;;;1.84;100.00;98893.84;2074428;28;20216;-67
2022/02/23 00:25:26;;;;;;;31.73;20.70;;;;;;;1.83;100.00;98895.69;2074480;28;20275;-68
2022/02/23 00:26:34;;;;;;;29.55;20.30;;;;;;;1.83;100.00;98897.53;2074688;28;20565;-66
2022/02/23 00:27:38;;;;;;;30.63;20.38;;;;;;;1.84;100.00;98891.22;2074745;28;20199;-67
2022/02/23 00:28:41;;;;;;;28.15;19.55;;;;;;;1.84;100.00;98891.22;2073871;28;20220;-68
2022/02/23 00:29:45;;;;;;;30.15;19.70;;;;;;;1.83;100.00;98889.63;2066676;28;20209;-67
2022/02/23 00:30:49;;;;;;;27.55;19.35;;;;;;;1.83;100.00;98885.16;2074138;28;20189;-68
2022/02/23 00:31:59;;;;;;;29.95;20.02;;;;;;;1.83;100.00;98887.00;2074662;28;20203;-67
2022/02/23 00:33:03;;;;;;;29.50;19.75;;;;;;;1.83;100.00;98889.63;2074306;28;20200;-68
2022/02/23 00:34:08;;;;;;;23.98;19.77;;;;;;;1.83;100.00;98879.91;2067044;28;20224;-68
2022/02/23 00:35:11;;;;;;;32.42;19.80;;;;;;;1.82;100.00;98882.75;2074379;28;20682;-67
2022/02/23 00:36:13;;;;;;;32.73;19.83;;;;;;;1.83;100.00;98873.84;2073258;28;20589;-67
2022/02/23 00:37:17;;;;;;;32.67;20.40;;;;;;;1.83;100.00;98877.28;2074113;28;20701;-67
2022/02/23 00:38:23;;;;;;;24.67;19.50;;;;;;;1.84;100.00;98878.88;2074578;28;20220;-68
2022/02/23 00:39:26;;;;;;;31.30;19.95;;;;;;;1.82;100.00;98862.50;2074611;28;20200;-68
2022/02/23 00:40:34;;;;;;;27.92;19.67;;;;;;;1.82;100.00;98869.59;2074562;28;20192;-67
2022/02/23 00:41:39;;;;;;;27.58;18.83;;;;;;;1.82;100.00;98859.09;2074141;28;20610;-67
2022/02/23 00:42:43;;;;;;;24.83;19.35;;;;;;;1.83;100.00;98863.34;2066195;28;20201;-67
2022/02/23 00:43:48;;;;;;;29.83;18.75;;;;;;;1.83;100.00;98868.59;2066725;28;20619;-68
2022/02/23 00:44:56;;;;;;;31.00;19.20;;;;;;;1.83;100.00;98861.50;2066491;28;20707;-68
2022/02/23 00:46:02;;;;;;;27.17;19.27;;;;;;;1.87;100.00;98867.06;2067233;28;20296;-67
2022/02/23 00:47:10;;;;;;;31.08;19.98;;;;;;;1.88;100.00;98855.47;2073866;28;20204;-67
2022/02/23 00:48:13;;;;;;;31.33;19.15;;;;;;;1.86;100.00;98852.31;2074058;28;20188;-67
2022/02/23 00:49:15;;;;;;;30.40;19.38;;;;;;;1.84;100.00;98843.88;2073862;28;20200;-68
2022/02/23 00:50:19;;;;;;;28.88;20.38;;;;;;;1.83;100.00;98844.91;2066090;28;20567;-67
2022/02/23 00:51:25;;;;;;;32.28;19.55;;;;;;;1.88;100.00;98851.03;2073592;28;20217;-68
2022/02/23 00:52:28;;;;;;;26.70;19.20;;;;;;;1.85;100.00;98846.25;2074474;28;20703;-68
2022/02/23 00:53:38;;;;;;;28.20;19.25;;;;;;;1.85;100.00;98835.72;2073699;28;20218;-67
2022/02/23 00:54:39;;;;;;;30.60;19.48;;;;;;;1.89;100.00;98839.47;2074013;28;20269;-68
2022/02/23 00:55:45;;;;;;;27.88;18.25;;;;;;;1.89;100.00;98833.41;2074180;28;20287;-67
2022/02/23 00:56:49;;;;;;;27.65;18.52;;;;;;;1.92;100.00;98838.97;2074508;28;20181;-68
2022/02/23 00:57:51;;;;;;;28.77;19.17;;;;;;;1.91;100.00;98833.94;2074479;28;20192;-68
2022/02/23 00:58:54;;;;;;;24.50;18.80;;;;;;;1.93;100.00;98834.50;2074403;28;20667;-67
2022/02/23 00:59:59;;;;;;;28.00;19.35;;;;;;;1.94;100.00;98834.25;2073715;28;20192;-68
2022/02/23 01:01:04;;;;;;;27.17;19.05;;;;;;;1.94;100.00;98836.91;2074471;28;20665;-67
2022/02/23 01:02:06;;;;;;;31.95;20.52;;;;;;;1.96;100.00;98837.44;2073268;28;20631;-68
2022/02/23 01:03:09;;;;;;;26.58;19.02;;;;;;;1.99;100.00;98839.56;2073890;28;20674;-68
2022/02/23 01:04:12;;;;;;;28.98;19.17;;;;;;;2.01;100.00;98838.56;2073800;28;20750;-68
2022/02/23 01:05:18;;;;;;;25.10;18.83;;;;;;;2.01;100.00;98835.94;2073900;28;20278;-68
2022/02/23 01:06:22;;;;;;;31.70;19.27;;;;;;;1.99;100.00;98831.69;2074069;28;20236;-67
2022/02/23 01:07:31;;;;;;;32.17;19.40;;;;;;;2.01;100.00;98836.72;2073982;28;20211;-67
2022/02/23 01:08:37;;;;;;;26.10;18.27;;;;;;;2.02;100.00;98838.31;2073816;28;20218;-68
2022/02/23 01:09:41;;;;;;;27.52;18.70;;;;;;;2.02;100.00;98840.16;2073973;28;20247;-68
2022/02/23 01:10:45;;;;;;;33.15;19.80;;;;;;;2.04;100.00;98846.75;2066303;28;20209;-67
2022/02/23 01:11:51;;;;;;;28.20;18.65;;;;;;;2.03;100.00;98839.91;2066422;28;20201;-68
2022/02/23 01:12:56;;;;;;;25.70;18.88;;;;;;;2.03;100.00;98841.72;2066242;28;20706;-68
2022/02/23 01:14:01;;;;;;;24.15;18.30;;;;;;;2.03;100.00;98836.47;2073978;28;20275;-68
2022/02/23 01:15:04;;;;;;;25.85;18.67;;;;;;;2.03;100.00;98841.72;2073649;28;20643;-68
2022/02/23 01:16:06;;;;;;;24.73;19.02;;;;;;;2.04;100.00;98840.69;2065909;28;20678;-67
2022/02/23 01:17:09;;;;;;;28.73;18.75;;;;;;;2.04;100.00;98841.47;2065582;28;20193;-67
2022/02/23 01:18:11;;;;;;;22.73;18.98;;;;;;;2.03;100.00;98842.53;2073643;28;20742;-68
2022/02/23 01:19:15;;;;;;;27.33;18.63;;;;;;;2.01;100.00;98841.97;2073868;28;20612;-68
2022/02/23 01:20:18;;;;;;;24.23;18.40;;;;;;;1.98;100.00;98839.81;2074356;28;20229;-68
2022/02/23 01:21:26;;;;;;;29.70;19.00;;;;;;;2.00;100.00;98835.13;2073937;28;20608;-68
2022/02/23 01:22:29;;;;;;;27.80;17.98;;;;;;;1.97;100.00;98832.97;2074503;28;20188;-67
2022/02/23 01:23:32;;;;;;;34.53;19.08;;;;;;;1.96;100.00;98831.38;2073918;28;20228;-67
2022/02/23 01:24:35;;;;;;;29.65;18.65;;;;;;;1.96;100.00;98832.19;2073961;28;20222;-68
2022/02/23 01:25:38;;;;;;;27.98;18.95;;;;;;;1.96;100.00;98837.44;2073895;28;20663;-68
2022/02/23 01:26:46;;;;;;;24.50;17.58;;;;;;;1.98;100.00;98835.34;2073776;28;20242;-67
2022/02/23 01:27:55;;;;;;;28.42;18.38;;;;;;;1.97;100.00;98830.34;2074379;28;20274;-67
2022/02/23 01:29:01;;;;;;;38.65;19.48;;;;;;;2.01;100.00;98835.94;2074062;28;20236;-67
2022/02/23 01:30:06;;;;;;;26.58;18.83;;;;;;;1.99;100.00;98830.88;2073912;28;20657;-68
2022/02/23 01:31:10;;;;;;;24.83;18.00;;;;;;;1.98;100.00;98829.28;2066329;28;20205;-68
2022/02/23 01:32:11;;;;;;;28.75;18.23;;;;;;;2.01;100.00;98823.56;2073668;28;20203;-69
2022/02/23 01:33:17;;;;;;;23.47;18.53;;;;;;;2.05;100.00;98824.66;2074164;28;20271;-67
2022/02/23 01:34:19;;;;;;;30.13;19.35;;;;;;;2.05;100.00;98823.84;2074030;28;20542;-67
2022/02/23 01:35:24;;;;;;;30.70;19.10;;;;;;;2.03;100.00;98818.06;2073539;28;20279;-67
2022/02/23 01:36:32;;;;;;;32.75;18.98;;;;;;;2.08;100.00;98818.88;2073046;28;20686;-67
2022/02/23 01:37:35;;;;;;;23.23;18.63;;;;;;;2.05;100.00;98814.13;2073650;28;20192;-68
2022/02/23 01:38:37;;;;;;;27.17;17.73;;;;;;;2.07;100.00;98812.03;2073407;28;20212;-68
2022/02/23 01:39:40;;;;;;;25.95;18.02;;;;;;;2.07;100.00;98814.66;2065740;28;20281;-67
2022/02/23 01:40:45;;;;;;;23.05;18.23;;;;;;;2.05;100.00;98803.59;2073625;28;20196;-67
2022/02/23 01:41:51;;;;;;;26.02;17.80;;;;;;;2.01;100.00;98799.88;2073811;28;20200;-67
2022/02/23 01:42:57;;;;;;;27.77;18.42;;;;;;;2.03;100.00;98800.44;2066410;28;20319;-68
2022/02/23 01:44:01;;;;;;;28.25;18.45;;;;;;;2.07;100.00;98798.88;2073872;28;20559;-68
2022/02/23 01:45:04;;;;;;;21.75;17.67;;;;;;;2.05;100.00;98787.81;2074103;28;20230;-67
2022/02/23 01:46:09;;;;;;;24.08;16.65;;;;;;;2.09;100.00;98794.19;2074114;28;20189;-67
2022/02/23 01:47:12;;;;;;;29.83;17.38;;;;;;;2.08;100.00;98797.84;2074379;28;20220;-68
2022/02/23 01:48:19;;;;;;;25.05;17.20;;;;;;;2.08;100.00;98792.56;2073988;28;20540;-67
2022/02/23 01:49:26;;;;;;;26.85;17.67;;;;;;;2.05;100.00;98787.81;2073846;28;20633;-68
2022/02/23 01:50:30;;;;;;;28.25;18.52;;;;;;;2.09;100.00;98791.56;2073726;28;20199;-68
2022/02/23 01:51:32;;;;;;;24.48;17.85;;;;;;;2.11;100.00;98793.94;2073761;28;20759;-67
2022/02/23 01:52:35;;;;;;;25.48;17.70;;;;;;;2.09;100.00;98793.41;2074082;28;20211;-68
2022/02/23 01:53:37;;;;;;;31.02;17.27;;;;;;;2.11;100.00;98792.09;2074062;28;20196;-67
2022/02/23 01:54:41;;;;;;;22.15;16.90;;;;;;;2.08;100.00;98792.56;2074086;28;20719;-68
2022/02/23 01:55:46;;;;;;;23.08;16.80;;;;;;;2.11;100.00;98796.56;2073977;28;20231;-67
2022/02/23 01:56:52;;;;;;;28.83;17.63;;;;;;;2.12;100.00;98793.69;2073580;28;20196;-68
2022/02/23 01:58:00;;;;;;;23.85;16.92;;;;;;;2.13;100.00;98786.59;2066154;28;20283;-67
2022/02/23 01:59:06;;;;;;;27.60;17.42;;;;;;;2.13;100.00;98792.63;2073181;28;20278;-67
2022/02/23 02:00:12;;;;;;;19.63;16.20;;;;;;;2.12;100.00;98783.16;2073518;28;20226;-69
2022/02/23 02:01:14;;;;;;;19.38;16.58;;;;;;;2.15;100.00;98780.03;2073830;28;20250;-67
2022/02/23 02:02:16;;;;;;;23.42;16.70;;;;;;;2.17;100.00;98787.66;2073691;28;20289;-68
2022/02/23 02:03:24;;;;;;;21.33;16.20;;;;;;;2.19;100.00;98780.34;2074081;28;20188;-68
2022/02/23 02:04:29;;;;;;;20.65;15.98;;;;;;;2.17;100.00;98783.22;2074094;28;20168;-68
2022/02/23 02:05:35;;;;;;;22.60;16.48;;;;;;;2.18;100.00;98782.19;2073933;28;20195;-67
2022/02/23 02:06:39;;;;;;;25.27;16.48;;;;;;;2.18;100.00;98779.53;2073358;28;20220;-68
2022/02/23 02:07:41;;;;;;;19.17;16.10;;;;;;;2.17;100.00;98780.59;2065489;28;20204;-67
2022/02/23 02:08:47;;;;;;;23.58;16.73;;;;;;;2.19;100.00;98782.97;2065764;28;20588;-67
2022/02/23 02:09:52;;;;;;;20.73;16.55;;;;;;;2.17;100.00;98771.88;2073300;28;20207;-68
2022/02/23 02:10:59;;;;;;;23.10;16.10;;;;;;;2.20;100.00;98780.09;2073366;28;20274;-68
2022/02/23 02:12:03;;;;;;;25.55;17.08;;;;;;;2.24;100.00;98778.53;2066067;28;20200;-68
2022/02/23 02:13:10;;;;;;;26.88;17.25;;;;;;;2.26;100.00;98778.31;2073093;28;20573;-68
2022/02/23 02:14:13;;;;;;;21.63;16.63;;;;;;;2.24;100.00;98780.38;2073722;28;20670;-68
2022/02/23 02:15:16;;;;;;;26.42;16.73;;;;;;;2.21;100.00;98779.03;2065755;28;20259;-67
2022/02/23 02:16:23;;;;;;;24.42;17.02;;;;;;;2.23;100.00;98774.31;2073474;28;20196;-67
2022/02/23 02:17:26;;;;;;;27.10;16.98;;;;;;;2.25;100.00;98779.31;2073965;28;20192;-68
2022/02/23 02:18:34;;;;;;;21.17;16.55;;;;;;;2.23;100.00;98776.94;2074009;28;20192;-68
2022/02/23 02:19:40;;;;;;;20.52;17.35;;;;;;;2.29;100.00;98777.00;2074189;28;20188;-67
2022/02/23 02:20:42;;;;;;;27.83;17.02;;;;;;;2.28;100.00;98775.41;2073956;28;20200;-67
2022/02/23 02:21:59;;;;;;;20.15;16.85;;;;;;;2.25;100.00;98774.84;2073254;28;20231;-67
2022/02/23 02:23:01;;;;;;;19.55;16.80;;;;;;;2.25;100.00;98768.78;2067389;28;20323;-68
2022/02/23 02:24:06;;;;;;;21.95;17.23;;;;;;;2.23;100.00;98763.78;2073450;28;20208;-68
2022/02/23 02:25:13;;;;;;;20.75;17.50;;;;;;;2.20;100.00;98764.28;2073732;28;20666;-67
2022/02/23 02:26:23;;;;;;;21.83;17.50;;;;;;;2.22;100.00;98762.19;2073721;28;20195;-68
2022/02/23 02:27:27;;;;;;;25.67;17.35;;;;;;;2.20;100.00;98752.97;2073441;28;20199;-68
2022/02/23 02:28:32;;;;;;;20.52;17.52;;;;;;;2.17;100.00;98742.94;2073885;28;20228;-68
2022/02/23 02:29:34;;;;;;;24.25;16.65;;;;;;;2.14;100.00;98743.44;2074011;28;20177;-67
2022/02/23 02:30:41;;;;;;;28.58;17.48;;;;;;;2.13;100.00;98752.38;2073937;28;20192;-67
2022/02/23 02:31:48;;;;;;;21.10;16.80;;;;;;;2.10;100.00;98743.16;2073896;28;20196;-67
2022/02/23 02:32:58;;;;;;;29.95;17.00;;;;;;;2.12;100.00;98745.53;2073811;28;20193;-68
2022/02/23 02:34:02;;;;;;;22.52;16.95;;;;;;;2.12;100.00;98742.91;2073963;28;20287;-68
2022/02/23 02:35:05;;;;;;;23.13;17.25;;;;;;;2.09;100.00;98735.50;2073934;28;20617;-67
2022/02/23 02:36:10;;;;;;;23.15;18.25;;;;;;;2.07;100.00;98733.09;2072957;28;20295;-68
2022/02/23 02:37:16;;;;;;;24.75;17.27;;;;;;;2.02;100.00;98730.44;2065940;28;20221;-67
2022/02/23 02:38:22;;;;;;;20.98;17.10;;;;;;;1.99;100.00;98734.34;2065623;28;20196;-67
2022/02/23 02:39:26;;;;;;;30.02;17.73;;;;;;;1.97;100.00;98730.38;2073311;28;20220;-67
2022/02/23 02:40:32;;;;;;;24.63;17.83;;;;;;;1.95;100.00;98730.63;2073440;28;20217;-66
2022/02/23 02:41:37;;;;;;;23.27;17.58;;;;;;;1.90;100.00;98733.19;2066267;28;20579;-67
2022/02/23 02:42:41;;;;;;;22.70;16.63;;;;;;;1.94;100.00;98734.31;2073373;28;20678;-66
2022/02/23 02:43:46;;;;;;;24.83;17.05;;;;;;;1.89;100.00;98731.59;2073411;28;20204;-67
2022/02/23 02:44:51;;;;;;;20.45;16.50;;;;;;;1.89;100.00;98733.44;2073280;28;20249;-67
2022/02/23 02:45:59;;;;;;;21.00;16.80;;;;;;;1.89;100.00;98730.81;2073527;28;20360;-67
2022/02/23 02:47:05;;;;;;;21.00;16.65;;;;;;;1.85;100.00;98735.00;2073420;28;20651;-67
2022/02/23 02:48:08;;;;;;;20.30;17.27;;;;;;;1.83;100.00;98731.81;2073607;28;20204;-67
2022/02/23 02:49:10;;;;;;;19.92;15.93;;;;;;;1.81;100.00;98733.88;2073531;28;20198;-67
2022/02/23 02:50:12;;;;;;;22.10;16.15;;;;;;;1.83;100.00;98727.34;2073485;28;20585;-67
2022/02/23 02:51:13;;;;;;;18.15;16.23;;;;;;;1.80;100.00;98730.47;2065102;28;20319;-67
2022/02/23 02:52:20;;;;;;;21.33;17.13;;;;;;;1.79;100.00;98735.97;2065489;28;20209;-67
2022/02/23 02:53:26;;;;;;;25.58;17.35;;;;;;;1.77;100.00;98722.28;2072553;28;20534;-67
2022/02/23 02:54:28;;;;;;;22.15;16.75;;;;;;;1.73;100.00;98723.78;2073409;28;20196;-67
2022/02/23 02:55:30;;;;;;;26.35;17.20;;;;;;;1.70;100.00;98723.25;2073939;28;20641;-67
2022/02/23 02:56:32;;;;;;;22.70;16.92;;;;;;;1.68;100.00;98721.91;2073503;28;20287;-67
2022/02/23 02:57:37;;;;;;;20.65;17.25;;;;;;;1.65;100.00;98720.59;2073292;28;20242;-67
2022/02/23 02:58:39;;;;;;;20.83;17.15;;;;;;;1.64;100.00;98724.22;2073803;28;20184;-67
2022/02/23 02:59:45;;;;;;;20.67;17.13;;;;;;;1.60;100.00;98717.88;2073163;28;20248;-67
2022/02/23 03:00:50;;;;;;;23.60;17.40;;;;;;;1.61;100.00;98723.94;2066030;28;20444;-68
2022/02/23 03:01:57;;;;;;;24.33;17.90;;;;;;;1.59;100.00;98726.81;2072945;28;20307;-67
2022/02/23 03:03:02;;;;;;;22.27;17.75;;;;;;;1.59;100.00;98726.03;2073709;28;20188;-67
2022/02/23 03:04:06;;;;;;;20.75;17.05;;;;;;;1.58;100.00;98729.69;2073547;28;20216;-66
2022/02/23 03:05:10;;;;;;;22.33;17.92;;;;;;;1.61;100.00;98729.19;2065450;28;20283;-67
2022/02/23 03:06:12;;;;;;;20.77;17.20;;;;;;;1.62;100.00;98746.56;2064917;28;20232;-67
2022/02/23 03:07:19;;;;;;;21.75;16.83;;;;;;;1.62;100.00;98739.47;2073270;28;20177;-67
2022/02/23 03:08:27;;;;;;;19.27;16.88;;;;;;;1.62;100.00;98736.84;2074058;28;20200;-67
2022/02/23 03:09:36;;;;;;;25.15;17.48;;;;;;;1.66;100.00;98743.19;2073754;28;20628;-67
2022/02/23 03:10:40;;;;;;;21.05;17.83;;;;;;;1.61;100.00;98743.13;2073998;28;20197;-67
2022/02/23 03:11:42;;;;;;;22.50;17.20;;;;;;;1.65;100.00;98744.25;2073851;28;20196;-67
2022/02/23 03:12:44;;;;;;;26.17;18.02;;;;;;;1.61;100.00;98735.25;2073101;28;20200;-68
2022/02/23 03:13:49;;;;;;;25.73;17.50;;;;;;;1.59;100.00;98739.97;2073216;28;20563;-67
2022/02/23 03:14:54;;;;;;;21.50;17.75;;;;;;;1.55;100.00;98741.47;2073753;28;20196;-67
2022/02/23 03:16:03;;;;;;;23.42;17.60;;;;;;;1.50;100.00;98733.53;2073040;28;20721;-66
2022/02/23 03:17:06;;;;;;;26.98;17.65;;;;;;;1.48;100.00;98730.38;2073229;28;20196;-67
2022/02/23 03:18:07;;;;;;;20.90;17.17;;;;;;;1.44;100.00;98724.00;2073733;28;20231;-68
2022/02/23 03:19:08;;;;;;;24.30;17.33;;;;;;;1.46;100.00;98742.94;2073034;28;20212;-67
2022/02/23 03:20:10;;;;;;;30.05;18.20;;;;;;;1.44;100.00;98734.50;2065064;28;20679;-68
2022/02/23 03:21:17;;;;;;;19.63;17.00;;;;;;;1.42;100.00;98737.38;2072609;28;20197;-67
2022/02/23 03:22:22;;;;;;;24.23;17.95;;;;;;;1.43;100.00;98732.94;2073209;28;20242;-67
2022/02/23 03:23:29;;;;;;;24.55;18.23;;;;;;;1.45;100.00;98724.78;2074411;28;20233;-67
2022/02/23 03:24:30;;;;;;;27.73;18.27;;;;;;;1.43;100.00;98725.03;2074673;28;20554;-68
2022/02/23 03:25:34;;;;;;;22.90;17.38;;;;;;;1.40;100.00;98728.16;2074920;28;20255;-68
2022/02/23 03:26:35;;;;;;;23.33;16.98;;;;;;;1.39;100.00;98721.28;2066702;28;20224;-67
2022/02/23 03:27:40;;;;;;;21.13;17.00;;;;;;;1.39;100.00;98724.75;2074709;28;20193;-67
2022/02/23 03:28:44;;;;;;;26.40;17.33;;;;;;;1.38;100.00;98727.59;2075164;28;20466;-67
2022/02/23 03:29:49;;;;;;;19.90;16.35;;;;;;;1.40;100.00;98725.53;2074437;28;20223;-67
2022/02/23 03:30:52;;;;;;;35.20;17.27;;;;;;;1.41;100.00;98721.88;2074620;28;20566;-68
2022/02/23 03:31:57;;;;;;;30.95;18.23;;;;;;;1.40;100.00;98718.44;2075096;28;20193;-67
2022/02/23 03:32:58;;;;;;;18.67;16.70;;;;;;;1.46;100.00;98724.53;2074544;28;20602;-68
2022/02/23 03:34:01;;;;;;;20.20;17.20;;;;;;;1.48;100.00;98716.41;2074542;28;20550;-67
2022/02/23 03:35:04;;;;;;;22.00;17.88;;;;;;;1.49;100.00;98725.91;2075387;28;20553;-68
2022/02/23 03:36:09;;;;;;;21.92;17.27;;;;;;;1.49;100.00;98720.66;2074254;28;20196;-67
2022/02/23 03:37:18;;;;;;;21.73;17.00;;;;;;;1.49;100.00;98718.03;2074557;28;20220;-67
2022/02/23 03:38:20;;;;;;;29.67;18.40;;;;;;;1.52;100.00;98731.47;2075222;28;20603;-68
2022/02/23 03:39:23;;;;;;;25.05;17.83;;;;;;;1.57;100.00;98726.28;2075080;28;20748;-67
2022/02/23 03:40:25;;;;;;;21.73;17.40;;;;;;;1.61;100.00;98723.94;2074718;28;20714;-68
2022/02/23 03:41:27;;;;;;;25.50;17.58;;;;;;;1.61;100.00;98723.94;2074558;28;20194;-68
2022/02/23 03:42:32;;;;;;;26.17;17.13;;;;;;;1.63;100.00;98722.66;2075302;28;20647;-68
2022/02/23 03:43:37;;;;;;;24.00;17.33;;;;;;;1.63;100.00;98722.66;2074262;28;20611;-68
2022/02/23 03:44:38;;;;;;;22.42;17.60;;;;;;;1.64;100.00;98718.97;2074516;28;20197;-67
2022/02/23 03:45:43;;;;;;;23.52;17.73;;;;;;;1.65;100.00;98714.50;2074816;28;20220;-68
2022/02/23 03:46:45;;;;;;;28.35;17.25;;;;;;;1.66;100.00;98716.91;2074521;28;20717;-67
2022/02/23 03:47:46;;;;;;;22.05;17.58;;;;;;;1.66;100.00;98716.13;2075295;28;20196;-67
2022/02/23 03:48:50;;;;;;;24.97;17.47;;;;;;;1.66;100.00;98716.13;2075077;28;20184;-68
2022/02/23 03:49:58;;;;;;;19.67;16.92;;;;;;;1.72;100.00;98716.94;2075057;28;20620;-67
2022/02/23 03:51:04;;;;;;;27.38;17.70;;;;;;;1.71;100.00;98724.03;2074727;28;20192;-68
2022/02/23 03:52:07;;;;;;;22.23;17.33;;;;;;;1.75;100.00;98719.09;2074966;28;20200;-68
2022/02/23 03:53:11;;;;;;;22.10;17.35;;;;;;;1.73;100.00;98716.69;2074343;28;20203;-67
2022/02/23 03:54:14;;;;;;;20.50;17.92;;;;;;;1.75;100.00;98724.38;2066378;28;20672;-68
2022/02/23 03:55:16;;;;;;;27.27;18.00;;;;;;;1.75;100.00;98713.84;2074472;28;20219;-67
2022/02/23 03:57:43;;;;;;;24.25;17.77;;;;;;;1.78;100.00;98718.59;2074747;28;20228;-68
2022/02/23 03:58:46;;;;;;;20.80;18.67;;;;;;;1.78;100.00;98714.13;2067276;28;20691;-67
2022/02/23 03:59:50;;;;;;;21.85;17.48;;;;;;;1.79;100.00;98717.56;2074267;28;20620;-67
2022/02/23 04:00:51;;;;;;;27.45;17.23;;;;;;;1.81;100.00;98723.34;2074636;28;20262;-67
2022/02/23 04:01:53;;;;;;;20.50;17.10;;;;;;;1.84;100.00;98725.50;2066426;28;20264;-68
2022/02/23 04:02:56;;;;;;;19.27;16.42;;;;;;;1.83;100.00;98723.94;2074403;28;20599;-68
2022/02/23 04:03:59;;;;;;;24.60;16.55;;;;;;;1.85;100.00;98727.09;2074950;28;20188;-68
2022/02/23 04:05:04;;;;;;;23.52;17.60;;;;;;;1.87;100.00;98717.91;2074868;28;20199;-67
2022/02/23 04:06:07;;;;;;;22.67;17.17;;;;;;;1.90;100.00;98727.94;2074369;28;20211;-68
2022/02/23 04:07:09;;;;;;;24.73;17.35;;;;;;;1.92;100.00;98733.75;2074710;28;20228;-67
2022/02/23 04:08:12;;;;;;;21.15;17.75;;;;;;;1.93;100.00;98740.59;2066418;28;20591;-67
2022/02/23 04:09:18;;;;;;;19.65;16.92;;;;;;;1.94;100.00;98738.78;2066852;28;20207;-67
2022/02/23 04:10:20;;;;;;;25.52;17.75;;;;;;;1.93;100.00;98739.81;2074314;28;20207;-68
2022/02/23 04:11:22;;;;;;;24.23;17.70;;;;;;;2.01;100.00;98739.38;2074880;28;20588;-68
2022/02/23 04:12:25;;;;;;;28.73;17.38;;;;;;;2.04;100.00;98741.50;2074434;28;20223;-67
2022/02/23 04:13:32;;;;;;;20.70;17.73;;;;;;;2.04;100.00;98744.13;2066954;28;20288;-68
2022/02/23 04:14:35;;;;;;;19.30;17.45;;;;;;;2.05;100.00;98737.81;2074290;28;20196;-67
2022/02/23 04:15:41;;;;;;;25.85;18.00;;;;;;;2.15;100.00;98745.03;2074865;28;20184;-67
2022/02/23 04:16:44;;;;;;;21.17;16.48;;;;;;;2.17;100.00;98746.38;2074175;28;20681;-68
2022/02/23 04:17:47;;;;;;;24.60;17.63;;;;;;;2.15;100.00;98745.81;2074235;28;20197;-68
2022/02/23 04:18:49;;;;;;;21.45;17.05;;;;;;;2.14;100.00;98746.84;2073973;28;20250;-67
2022/02/23 04:19:58;;;;;;;26.67;17.52;;;;;;;2.14;100.00;98746.06;2074186;28;20303;-67
2022/02/23 04:20:59;;;;;;;22.05;16.48;;;;;;;2.12;100.00;98751.59;2073812;28;20579;-67
2022/02/23 04:22:02;;;;;;;22.60;16.90;;;;;;;2.11;100.00;98760.53;2066408;28;20251;-68
2022/02/23 04:23:04;;;;;;;18.58;16.73;;;;;;;2.08;100.00;98754.94;2074261;28;20204;-66
2022/02/23 04:24:07;;;;;;;24.33;17.63;;;;;;;2.07;100.00;98755.97;2074917;28;20250;-67
2022/02/23 04:25:10;;;;;;;20.75;17.73;;;;;;;2.02;100.00;98753.31;2074774;28;20188;-67
2022/02/23 04:26:17;;;;;;;22.30;18.08;;;;;;;2.04;100.00;98761.75;2074367;28;20589;-67
2022/02/23 04:27:22;;;;;;;20.63;18.48;;;;;;;2.00;100.00;98758.84;2074486;28;20226;-67
2022/02/23 04:28:28;;;;;;;23.23;17.85;;;;;;;1.97;100.00;98767.19;2074254;28;20331;-67
2022/02/23 04:29:33;;;;;;;22.08;18.00;;;;;;;1.91;100.00;98765.53;2074194;28;20626;-67
2022/02/23 04:30:34;;;;;;;21.60;18.25;;;;;;;1.82;100.00;98765.19;2074732;28;20666;-67
2022/02/23 04:31:38;;;;;;;27.87;18.37;;;;;;;1.82;100.00;98769.66;2074944;28;20188;-67
2022/02/23 04:32:40;;;;;;;22.50;18.55;;;;;;;1.76;100.00;98768.03;2074627;28;20427;-67
2022/02/23 04:33:48;;;;;;;28.83;19.30;;;;;;;1.69;100.00;98763.75;2073825;28;20220;-67
2022/02/23 04:34:56;;;;;;;22.92;19.65;;;;;;;1.62;100.00;98757.06;2067466;28;20201;-67
2022/02/23 04:36:00;;;;;;;26.30;22.77;;;;;;;1.57;100.00;98764.91;2073602;28;20223;-67
2022/02/23 04:37:02;;;;;;;26.85;23.17;;;;;;;1.52;100.00;98768.25;2074780;28;20181;-67
2022/02/23 04:38:03;;;;;;;25.95;23.13;;;;;;;1.48;100.00;98766.34;2074687;28;20196;-67
2022/02/23 04:39:09;;;;;;;25.30;22.65;;;;;;;1.40;100.00;98771.00;2074683;28;20200;-68
2022/02/23 04:40:16;;;;;;;29.60;22.83;;;;;;;1.37;100.00;98771.47;2074576;28;20220;-67
2022/02/23 04:41:23;;;;;;;26.20;23.02;;;;;;;1.33;100.00;98764.34;2074608;28;20223;-67
2022/02/23 04:42:28;;;;;;;29.55;23.73;;;;;;;1.32;100.00;98770.63;2074009;28;20195;-68
2022/02/23 04:43:35;;;;;;;32.95;24.33;;;;;;;1.33;100.00;98769.59;2065908;28;20225;-67
2022/02/23 04:44:37;;;;;;;28.08;25.02;;;;;;;1.34;100.00;98765.94;2074151;28;20205;-68
2022/02/23 04:45:40;;;;;;;34.33;26.23;;;;;;;1.31;100.00;98771.69;2074273;28;20196;-67
2022/02/23 04:46:41;;;;;;;28.00;24.98;;;;;;;1.28;100.00;98778.19;2066241;28;20266;-67
2022/02/23 04:47:46;;;;;;;30.98;27.75;;;;;;;1.28;100.00;98772.16;2074246;28;20267;-67
2022/02/23 04:48:52;;;;;;;29.00;26.25;;;;;;;1.27;100.00;98775.81;2074537;28;20207;-67
2022/02/23 04:49:57;;;;;;;31.08;27.75;;;;;;;1.28;100.00;98778.19;2073873;28;20197;-67
2022/02/23 04:51:00;;;;;;;35.03;27.42;;;;;;;1.29;100.00;98779.00;2073554;28;20239;-67
2022/02/23 04:52:02;;;;;;;28.70;25.70;;;;;;;1.29;100.00;98776.34;2073908;28;20247;-67
2022/02/23 04:53:03;;;;;;;30.60;26.00;;;;;;;1.29;100.00;98779.00;2074199;28;20730;-67
2022/02/23 04:54:08;;;;;;;32.13;25.47;;;;;;;1.27;100.00;98781.06;2073823;28;20291;-67
2022/02/23 04:55:16;;;;;;;28.25;25.35;;;;;;;1.31;100.00;98782.19;2073946;28;20227;-67
2022/02/23 04:56:19;;;;;;;26.95;24.35;;;;;;;1.28;100.00;98772.94;2074497;28;20283;-67
2022/02/23 04:57:26;;;;;;;31.08;24.45;;;;;;;1.27;100.00;98781.88;2074490;28;20188;-67